sensor_id;sensor_type;location;lat;lon;timestamp;P1;durP1;ratioP1;P2;durP2;ratioP2
7783;SDS011;19359;51.402;6.778;2022-08-03T00:02:17;1.77;;;1.15;;
7783;SDS011;19359;51.402;6.778;2022-08-03T00:04:44;1.85;;;0.90;;
7783;SDS011;19359;51.402;6.778;2022-08-03T00:07:11;1.15;;;1.15;;
7783;SDS011;19359;51.402;6.778;2022-08-03T00:09:38;1.17;;;1.17;;
7783;SDS011;19359;51.402;6.778;2022-08-03T00:12:05;1.77;;;1.48;;
7783;SDS011;19359;51.402;6.778;2022-08-03T00:14:32;4.03;;;1.20;;
7783;SDS011;19359;51.402;6.778;2022-08-03T00:16:59;3.47;;;1.20;;
7783;SDS011;19359;51.402;6.778;2022-08-03T00:19:27;1.85;;;1.15;;
7783;SDS011;19359;51.402;6.778;2022-08-03T00:21:54;1.63;;;1.30;;
7783;SDS011;19359;51.402;6.778;2022-08-03T00:24:21;1.95;;;1.13;;
7783;SDS011;19359;51.402;6.778;2022-08-03T00:26:48;4.25;;;1.48;;
7783;SDS011;19359;51.402;6.778;2022-08-03T00:29:15;1.40;;;1.30;;
7783;SDS011;19359;51.402;6.778;2022-08-03T00:31:42;1.30;;;1.20;;
7783;SDS011;19359;51.402;6.778;2022-08-03T00:34:09;2.00;;;1.10;;
7783;SDS011;19359;51.402;6.778;2022-08-03T00:36:37;1.63;;;1.48;;
7783;SDS011;19359;51.402;6.778;2022-08-03T00:39:04;1.38;;;1.20;;
7783;SDS011;19359;51.402;6.778;2022-08-03T00:41:32;1.65;;;1.00;;
7783;SDS011;19359;51.402;6.778;2022-08-03T00:43:58;1.40;;;1.30;;
7783;SDS011;19359;51.402;6.778;2022-08-03T00:46:25;8.27;;;1.25;;
7783;SDS011;19359;51.402;6.778;2022-08-03T00:48:52;1.40;;;1.30;;
7783;SDS011;19359;51.402;6.778;2022-08-03T00:51:19;1.58;;;1.48;;
7783;SDS011;19359;51.402;6.778;2022-08-03T00:53:48;3.03;;;1.27;;
7783;SDS011;19359;51.402;6.778;2022-08-03T00:56:16;7.03;;;1.65;;
7783;SDS011;19359;51.402;6.778;2022-08-03T00:58:43;4.25;;;1.13;;
7783;SDS011;19359;51.402;6.778;2022-08-03T01:01:11;1.85;;;1.33;;
7783;SDS011;19359;51.402;6.778;2022-08-03T01:03:38;2.60;;;1.48;;
7783;SDS011;19359;51.402;6.778;2022-08-03T01:06:06;2.15;;;1.60;;
7783;SDS011;19359;51.402;6.778;2022-08-03T01:08:41;1.45;;;1.17;;
7783;SDS011;19359;51.402;6.778;2022-08-03T01:11:16;4.80;;;2.20;;
7783;SDS011;19359;51.402;6.778;2022-08-03T01:13:51;2.72;;;1.48;;
7783;SDS011;19359;51.402;6.778;2022-08-03T01:16:25;1.30;;;1.27;;
7783;SDS011;19359;51.402;6.778;2022-08-03T01:18:57;3.78;;;1.27;;
7783;SDS011;19359;51.402;6.778;2022-08-03T01:21:30;1.48;;;1.38;;
7783;SDS011;19359;51.402;6.778;2022-08-03T01:24:06;1.83;;;1.55;;
7783;SDS011;19359;51.402;6.778;2022-08-03T01:26:52;1.23;;;1.23;;
7783;SDS011;19359;51.402;6.778;2022-08-03T01:32:30;4.78;;;1.60;;
7783;SDS011;19359;51.402;6.778;2022-08-03T01:35:03;1.15;;;1.10;;
7783;SDS011;19359;51.402;6.778;2022-08-03T01:37:36;2.08;;;1.17;;
7783;SDS011;19359;51.402;6.778;2022-08-03T01:40:07;2.03;;;1.50;;
7783;SDS011;19359;51.402;6.778;2022-08-03T01:42:37;1.10;;;1.10;;
7783;SDS011;19359;51.402;6.778;2022-08-03T01:45:08;3.83;;;1.83;;
7783;SDS011;19359;51.402;6.778;2022-08-03T01:47:37;1.33;;;1.20;;
7783;SDS011;19359;51.402;6.778;2022-08-03T01:50:05;2.00;;;1.58;;
7783;SDS011;19359;51.402;6.778;2022-08-03T01:52:33;1.42;;;1.35;;
7783;SDS011;19359;51.402;6.778;2022-08-03T01:55:04;3.38;;;1.17;;
7783;SDS011;19359;51.402;6.778;2022-08-03T01:57:33;1.23;;;1.17;;
7783;SDS011;19359;51.402;6.778;2022-08-03T02:00:02;3.20;;;1.95;;
7783;SDS011;19359;51.402;6.778;2022-08-03T02:02:32;1.08;;;1.00;;
7783;SDS011;19359;51.402;6.778;2022-08-03T02:04:59;1.42;;;1.42;;
7783;SDS011;19359;51.402;6.778;2022-08-03T02:07:27;1.50;;;1.33;;
7783;SDS011;19359;51.402;6.778;2022-08-03T02:09:55;2.45;;;1.27;;
7783;SDS011;19359;51.402;6.778;2022-08-03T02:12:24;3.00;;;1.02;;
7783;SDS011;19359;51.402;6.778;2022-08-03T02:14:53;2.92;;;1.50;;
7783;SDS011;19359;51.402;6.778;2022-08-03T02:17:21;0.95;;;0.95;;
7783;SDS011;19359;51.402;6.778;2022-08-03T02:19:51;0.93;;;0.93;;
7783;SDS011;19359;51.402;6.778;2022-08-03T02:22:19;1.70;;;1.67;;
7783;SDS011;19359;51.402;6.778;2022-08-03T02:24:47;3.85;;;1.67;;
7783;SDS011;19359;51.402;6.778;2022-08-03T02:27:15;1.30;;;1.30;;
7783;SDS011;19359;51.402;6.778;2022-08-03T02:29:47;2.30;;;1.35;;
7783;SDS011;19359;51.402;6.778;2022-08-03T02:32:19;3.45;;;1.52;;
7783;SDS011;19359;51.402;6.778;2022-08-03T02:34:49;2.88;;;1.20;;
7783;SDS011;19359;51.402;6.778;2022-08-03T02:37:19;1.30;;;1.20;;
7783;SDS011;19359;51.402;6.778;2022-08-03T02:39:50;3.08;;;1.25;;
7783;SDS011;19359;51.402;6.778;2022-08-03T02:42:20;1.85;;;1.30;;
7783;SDS011;19359;51.402;6.778;2022-08-03T02:44:48;2.55;;;1.35;;
7783;SDS011;19359;51.402;6.778;2022-08-03T02:47:18;1.27;;;1.23;;
7783;SDS011;19359;51.402;6.778;2022-08-03T02:49:46;3.13;;;1.50;;
7783;SDS011;19359;51.402;6.778;2022-08-03T02:52:16;1.70;;;1.38;;
7783;SDS011;19359;51.402;6.778;2022-08-03T02:54:43;1.45;;;1.45;;
7783;SDS011;19359;51.402;6.778;2022-08-03T02:57:12;2.95;;;1.30;;
7783;SDS011;19359;51.402;6.778;2022-08-03T02:59:41;1.60;;;1.50;;
7783;SDS011;19359;51.402;6.778;2022-08-03T03:02:08;2.00;;;1.33;;
7783;SDS011;19359;51.402;6.778;2022-08-03T03:04:37;1.80;;;1.40;;
7783;SDS011;19359;51.402;6.778;2022-08-03T03:07:04;1.42;;;1.33;;
7783;SDS011;19359;51.402;6.778;2022-08-03T03:09:32;9.40;;;1.25;;
7783;SDS011;19359;51.402;6.778;2022-08-03T03:11:59;5.30;;;1.25;;
7783;SDS011;19359;51.402;6.778;2022-08-03T03:14:29;3.35;;;2.05;;
7783;SDS011;19359;51.402;6.778;2022-08-03T03:16:57;3.30;;;1.63;;
7783;SDS011;19359;51.402;6.778;2022-08-03T03:19:24;5.15;;;2.05;;
7783;SDS011;19359;51.402;6.778;2022-08-03T03:21:52;4.38;;;1.52;;
7783;SDS011;19359;51.402;6.778;2022-08-03T03:24:20;2.97;;;1.48;;
7783;SDS011;19359;51.402;6.778;2022-08-03T03:26:49;1.10;;;1.10;;
7783;SDS011;19359;51.402;6.778;2022-08-03T03:29:16;3.58;;;1.50;;
7783;SDS011;19359;51.402;6.778;2022-08-03T03:31:42;1.60;;;1.48;;
7783;SDS011;19359;51.402;6.778;2022-08-03T03:34:09;3.03;;;1.40;;
7783;SDS011;19359;51.402;6.778;2022-08-03T03:36:37;1.77;;;1.67;;
7783;SDS011;19359;51.402;6.778;2022-08-03T03:39:04;1.60;;;1.60;;
7783;SDS011;19359;51.402;6.778;2022-08-03T03:41:31;1.98;;;1.55;;
7783;SDS011;19359;51.402;6.778;2022-08-03T03:44:01;2.75;;;1.50;;
7783;SDS011;19359;51.402;6.778;2022-08-03T03:46:28;1.40;;;1.30;;
7783;SDS011;19359;51.402;6.778;2022-08-03T03:48:55;4.20;;;1.38;;
7783;SDS011;19359;51.402;6.778;2022-08-03T03:51:22;2.00;;;1.55;;
7783;SDS011;19359;51.402;6.778;2022-08-03T03:53:55;3.33;;;1.23;;
7783;SDS011;19359;51.402;6.778;2022-08-03T03:56:23;5.80;;;1.58;;
7783;SDS011;19359;51.402;6.778;2022-08-03T03:58:50;3.80;;;1.52;;
7783;SDS011;19359;51.402;6.778;2022-08-03T04:01:18;5.15;;;1.63;;
7783;SDS011;19359;51.402;6.778;2022-08-03T04:03:45;2.58;;;1.75;;
7783;SDS011;19359;51.402;6.778;2022-08-03T04:06:12;2.45;;;1.60;;
7783;SDS011;19359;51.402;6.778;2022-08-03T04:08:57;4.97;;;1.65;;
7783;SDS011;19359;51.402;6.778;2022-08-03T04:11:39;6.05;;;1.85;;
7783;SDS011;19359;51.402;6.778;2022-08-03T04:14:10;1.92;;;1.83;;
7783;SDS011;19359;51.402;6.778;2022-08-03T04:16:41;2.75;;;1.60;;
7783;SDS011;19359;51.402;6.778;2022-08-03T04:19:13;2.83;;;1.90;;
7783;SDS011;19359;51.402;6.778;2022-08-03T04:21:46;2.00;;;1.42;;
7783;SDS011;19359;51.402;6.778;2022-08-03T04:24:15;2.55;;;1.88;;
7783;SDS011;19359;51.402;6.778;2022-08-03T04:26:43;2.05;;;1.92;;
7783;SDS011;19359;51.402;6.778;2022-08-03T04:29:11;2.40;;;1.80;;
7783;SDS011;19359;51.402;6.778;2022-08-03T04:31:42;2.67;;;2.22;;
7783;SDS011;19359;51.402;6.778;2022-08-03T04:34:10;2.22;;;2.13;;
7783;SDS011;19359;51.402;6.778;2022-08-03T04:36:39;2.95;;;2.67;;
7783;SDS011;19359;51.402;6.778;2022-08-03T04:39:13;2.67;;;2.30;;
7783;SDS011;19359;51.402;6.778;2022-08-03T04:41:44;2.22;;;1.70;;
7783;SDS011;19359;51.402;6.778;2022-08-03T04:44:13;4.22;;;2.00;;
7783;SDS011;19359;51.402;6.778;2022-08-03T04:46:43;6.97;;;2.40;;
7783;SDS011;19359;51.402;6.778;2022-08-03T04:49:10;4.10;;;2.30;;
7783;SDS011;19359;51.402;6.778;2022-08-03T04:51:37;2.70;;;2.50;;
7783;SDS011;19359;51.402;6.778;2022-08-03T04:54:04;7.82;;;2.70;;
7783;SDS011;19359;51.402;6.778;2022-08-03T04:56:32;3.83;;;1.95;;
7783;SDS011;19359;51.402;6.778;2022-08-03T04:58:59;2.63;;;2.22;;
7783;SDS011;19359;51.402;6.778;2022-08-03T05:01:26;6.82;;;2.75;;
7783;SDS011;19359;51.402;6.778;2022-08-03T05:03:54;2.35;;;2.22;;
7783;SDS011;19359;51.402;6.778;2022-08-03T05:06:21;2.97;;;2.83;;
7783;SDS011;19359;51.402;6.778;2022-08-03T05:08:48;2.92;;;2.72;;
7783;SDS011;19359;51.402;6.778;2022-08-03T05:11:16;4.75;;;2.20;;
7783;SDS011;19359;51.402;6.778;2022-08-03T05:13:42;3.15;;;1.95;;
7783;SDS011;19359;51.402;6.778;2022-08-03T05:16:10;8.38;;;2.30;;
7783;SDS011;19359;51.402;6.778;2022-08-03T05:18:37;2.47;;;2.28;;
7783;SDS011;19359;51.402;6.778;2022-08-03T05:21:06;5.75;;;2.72;;
7783;SDS011;19359;51.402;6.778;2022-08-03T05:23:33;2.40;;;2.30;;
7783;SDS011;19359;51.402;6.778;2022-08-03T05:26:00;2.80;;;2.70;;
7783;SDS011;19359;51.402;6.778;2022-08-03T05:28:27;2.33;;;2.13;;
7783;SDS011;19359;51.402;6.778;2022-08-03T05:30:54;4.78;;;2.75;;
7783;SDS011;19359;51.402;6.778;2022-08-03T05:33:20;4.88;;;2.78;;
7783;SDS011;19359;51.402;6.778;2022-08-03T05:35:47;2.78;;;2.67;;
7783;SDS011;19359;51.402;6.778;2022-08-03T05:38:18;2.85;;;2.60;;
7783;SDS011;19359;51.402;6.778;2022-08-03T05:40:45;4.85;;;2.70;;
7783;SDS011;19359;51.402;6.778;2022-08-03T05:43:11;2.85;;;2.38;;
7783;SDS011;19359;51.402;6.778;2022-08-03T05:45:38;2.78;;;2.67;;
7783;SDS011;19359;51.402;6.778;2022-08-03T05:48:05;2.50;;;2.40;;
7783;SDS011;19359;51.402;6.778;2022-08-03T05:50:32;2.33;;;2.17;;
7783;SDS011;19359;51.402;6.778;2022-08-03T05:53:00;5.32;;;2.67;;
7783;SDS011;19359;51.402;6.778;2022-08-03T05:55:28;5.40;;;3.25;;
7783;SDS011;19359;51.402;6.778;2022-08-03T05:57:55;3.20;;;2.40;;
7783;SDS011;19359;51.402;6.778;2022-08-03T06:00:22;5.05;;;2.55;;
7783;SDS011;19359;51.402;6.778;2022-08-03T06:02:49;2.65;;;2.30;;
7783;SDS011;19359;51.402;6.778;2022-08-03T06:05:16;3.75;;;2.97;;
7783;SDS011;19359;51.402;6.778;2022-08-03T06:07:43;3.40;;;3.08;;
7783;SDS011;19359;51.402;6.778;2022-08-03T06:10:10;2.58;;;2.47;;
7783;SDS011;19359;51.402;6.778;2022-08-03T06:12:38;2.90;;;2.70;;
7783;SDS011;19359;51.402;6.778;2022-08-03T06:15:11;3.20;;;2.50;;
7783;SDS011;19359;51.402;6.778;2022-08-03T06:17:44;6.43;;;3.13;;
7783;SDS011;19359;51.402;6.778;2022-08-03T06:20:12;2.70;;;2.50;;
7783;SDS011;19359;51.402;6.778;2022-08-03T06:22:40;2.42;;;2.33;;
7783;SDS011;19359;51.402;6.778;2022-08-03T06:25:08;3.85;;;2.65;;
7783;SDS011;19359;51.402;6.778;2022-08-03T06:27:34;2.88;;;2.67;;
7783;SDS011;19359;51.402;6.778;2022-08-03T06:30:06;4.78;;;2.72;;
7783;SDS011;19359;51.402;6.778;2022-08-03T06:32:34;4.07;;;2.38;;
7783;SDS011;19359;51.402;6.778;2022-08-03T06:35:01;2.50;;;2.30;;
7783;SDS011;19359;51.402;6.778;2022-08-03T06:37:28;2.95;;;2.33;;
7783;SDS011;19359;51.402;6.778;2022-08-03T06:39:55;2.88;;;2.58;;
7783;SDS011;19359;51.402;6.778;2022-08-03T06:42:22;2.25;;;2.15;;
7783;SDS011;19359;51.402;6.778;2022-08-03T06:44:49;6.68;;;2.50;;
7783;SDS011;19359;51.402;6.778;2022-08-03T06:47:17;4.05;;;2.53;;
7783;SDS011;19359;51.402;6.778;2022-08-03T06:49:44;3.20;;;2.90;;
7783;SDS011;19359;51.402;6.778;2022-08-03T06:52:10;5.53;;;2.63;;
7783;SDS011;19359;51.402;6.778;2022-08-03T06:54:37;3.97;;;2.65;;
7783;SDS011;19359;51.402;6.778;2022-08-03T06:57:04;9.35;;;2.83;;
7783;SDS011;19359;51.402;6.778;2022-08-03T06:59:32;2.92;;;2.70;;
7783;SDS011;19359;51.402;6.778;2022-08-03T07:01:58;9.80;;;3.30;;
7783;SDS011;19359;51.402;6.778;2022-08-03T07:04:27;11.20;;;2.97;;
7783;SDS011;19359;51.402;6.778;2022-08-03T07:06:53;4.25;;;2.60;;
7783;SDS011;19359;51.402;6.778;2022-08-03T07:09:20;2.88;;;2.67;;
7783;SDS011;19359;51.402;6.778;2022-08-03T07:11:47;3.10;;;2.33;;
7783;SDS011;19359;51.402;6.778;2022-08-03T07:14:14;7.43;;;2.67;;
7783;SDS011;19359;51.402;6.778;2022-08-03T07:16:40;6.07;;;2.20;;
7783;SDS011;19359;51.402;6.778;2022-08-03T07:19:07;2.65;;;1.90;;
7783;SDS011;19359;51.402;6.778;2022-08-03T07:21:35;2.88;;;2.70;;
7783;SDS011;19359;51.402;6.778;2022-08-03T07:24:02;2.88;;;1.98;;
7783;SDS011;19359;51.402;6.778;2022-08-03T07:26:29;4.45;;;1.90;;
7783;SDS011;19359;51.402;6.778;2022-08-03T07:28:56;2.95;;;1.83;;
7783;SDS011;19359;51.402;6.778;2022-08-03T07:31:24;4.45;;;1.80;;
7783;SDS011;19359;51.402;6.778;2022-08-03T07:33:51;4.72;;;1.83;;
7783;SDS011;19359;51.402;6.778;2022-08-03T07:36:18;4.90;;;1.13;;
7783;SDS011;19359;51.402;6.778;2022-08-03T07:38:47;8.05;;;1.80;;
7783;SDS011;19359;51.402;6.778;2022-08-03T07:41:14;5.60;;;1.50;;
7783;SDS011;19359;51.402;6.778;2022-08-03T07:43:41;2.75;;;1.52;;
7783;SDS011;19359;51.402;6.778;2022-08-03T07:46:08;2.25;;;1.60;;
7783;SDS011;19359;51.402;6.778;2022-08-03T07:48:36;2.38;;;1.15;;
7783;SDS011;19359;51.402;6.778;2022-08-03T07:51:02;5.57;;;1.85;;
7783;SDS011;19359;51.402;6.778;2022-08-03T07:53:29;3.00;;;1.38;;
7783;SDS011;19359;51.402;6.778;2022-08-03T07:55:58;1.65;;;1.42;;
7783;SDS011;19359;51.402;6.778;2022-08-03T07:58:24;4.00;;;1.05;;
7783;SDS011;19359;51.402;6.778;2022-08-03T08:00:51;3.13;;;1.50;;
7783;SDS011;19359;51.402;6.778;2022-08-03T08:03:18;5.35;;;1.30;;
7783;SDS011;19359;51.402;6.778;2022-08-03T08:05:45;9.82;;;2.03;;
7783;SDS011;19359;51.402;6.778;2022-08-03T08:08:13;6.10;;;1.63;;
7783;SDS011;19359;51.402;6.778;2022-08-03T08:10:39;2.38;;;0.70;;
7783;SDS011;19359;51.402;6.778;2022-08-03T08:13:08;5.40;;;1.40;;
7783;SDS011;19359;51.402;6.778;2022-08-03T08:15:34;7.68;;;1.90;;
7783;SDS011;19359;51.402;6.778;2022-08-03T08:18:02;7.53;;;1.17;;
7783;SDS011;19359;51.402;6.778;2022-08-03T08:20:29;8.25;;;1.30;;
7783;SDS011;19359;51.402;6.778;2022-08-03T08:22:57;4.45;;;1.65;;
7783;SDS011;19359;51.402;6.778;2022-08-03T08:25:25;4.45;;;1.23;;
7783;SDS011;19359;51.402;6.778;2022-08-03T08:27:52;2.22;;;1.10;;
7783;SDS011;19359;51.402;6.778;2022-08-03T08:30:21;2.00;;;1.10;;
7783;SDS011;19359;51.402;6.778;2022-08-03T08:32:48;2.05;;;1.13;;
7783;SDS011;19359;51.402;6.778;2022-08-03T08:35:16;3.42;;;1.10;;
7783;SDS011;19359;51.402;6.778;2022-08-03T08:37:44;5.22;;;1.13;;
7783;SDS011;19359;51.402;6.778;2022-08-03T08:40:11;5.25;;;2.00;;
7783;SDS011;19359;51.402;6.778;2022-08-03T08:42:38;7.22;;;1.63;;
7783;SDS011;19359;51.402;6.778;2022-08-03T08:45:06;1.55;;;1.23;;
7783;SDS011;19359;51.402;6.778;2022-08-03T08:47:37;9.23;;;2.30;;
7783;SDS011;19359;51.402;6.778;2022-08-03T08:50:06;2.20;;;1.80;;
7783;SDS011;19359;51.402;6.778;2022-08-03T08:52:34;2.25;;;1.13;;
7783;SDS011;19359;51.402;6.778;2022-08-03T08:55:02;4.22;;;0.90;;
7783;SDS011;19359;51.402;6.778;2022-08-03T08:57:32;2.75;;;1.25;;
7783;SDS011;19359;51.402;6.778;2022-08-03T09:00:03;2.97;;;0.98;;
7783;SDS011;19359;51.402;6.778;2022-08-03T09:02:33;7.43;;;1.60;;
7783;SDS011;19359;51.402;6.778;2022-08-03T09:05:01;3.63;;;0.90;;
7783;SDS011;19359;51.402;6.778;2022-08-03T09:07:28;3.67;;;1.67;;
7783;SDS011;19359;51.402;6.778;2022-08-03T09:09:55;4.82;;;1.25;;
7783;SDS011;19359;51.402;6.778;2022-08-03T09:12:22;6.38;;;1.00;;
7783;SDS011;19359;51.402;6.778;2022-08-03T09:14:49;4.45;;;0.98;;
7783;SDS011;19359;51.402;6.778;2022-08-03T09:17:16;5.60;;;1.80;;
7783;SDS011;19359;51.402;6.778;2022-08-03T09:19:43;9.98;;;2.33;;
7783;SDS011;19359;51.402;6.778;2022-08-03T09:22:32;6.70;;;1.60;;
7783;SDS011;19359;51.402;6.778;2022-08-03T09:25:00;2.83;;;1.25;;
7783;SDS011;19359;51.402;6.778;2022-08-03T09:27:28;5.43;;;1.20;;
7783;SDS011;19359;51.402;6.778;2022-08-03T09:30:10;2.35;;;0.98;;
7783;SDS011;19359;51.402;6.778;2022-08-03T09:32:38;3.25;;;1.52;;
7783;SDS011;19359;51.402;6.778;2022-08-03T09:35:07;7.53;;;1.20;;
7783;SDS011;19359;51.402;6.778;2022-08-03T09:37:34;10.50;;;2.83;;
7783;SDS011;19359;51.402;6.778;2022-08-03T09:40:01;5.90;;;1.90;;
7783;SDS011;19359;51.402;6.778;2022-08-03T09:42:28;8.93;;;1.10;;
7783;SDS011;19359;51.402;6.778;2022-08-03T09:44:55;4.00;;;1.05;;
7783;SDS011;19359;51.402;6.778;2022-08-03T09:47:26;9.10;;;1.52;;
7783;SDS011;19359;51.402;6.778;2022-08-03T09:49:56;3.80;;;0.77;;
7783;SDS011;19359;51.402;6.778;2022-08-03T09:52:30;2.97;;;1.52;;
7783;SDS011;19359;51.402;6.778;2022-08-03T09:54:57;7.30;;;1.42;;
7783;SDS011;19359;51.402;6.778;2022-08-03T09:57:26;4.50;;;1.23;;
7783;SDS011;19359;51.402;6.778;2022-08-03T09:59:54;5.65;;;1.83;;
7783;SDS011;19359;51.402;6.778;2022-08-03T10:02:34;5.43;;;1.13;;
7783;SDS011;19359;51.402;6.778;2022-08-03T10:05:01;2.05;;;0.93;;
7783;SDS011;19359;51.402;6.778;2022-08-03T10:07:40;1.83;;;1.10;;
7783;SDS011;19359;51.402;6.778;2022-08-03T10:10:07;0.80;;;0.60;;
7783;SDS011;19359;51.402;6.778;2022-08-03T10:12:35;0.80;;;0.60;;
7783;SDS011;19359;51.402;6.778;2022-08-03T10:15:02;1.55;;;0.85;;
7783;SDS011;19359;51.402;6.778;2022-08-03T10:17:29;3.95;;;0.60;;
7783;SDS011;19359;51.402;6.778;2022-08-03T10:19:56;1.23;;;0.40;;
7783;SDS011;19359;51.402;6.778;2022-08-03T10:22:25;3.50;;;0.60;;
7783;SDS011;19359;51.402;6.778;2022-08-03T10:24:58;5.97;;;1.13;;
7783;SDS011;19359;51.402;6.778;2022-08-03T10:27:30;4.30;;;0.60;;
7783;SDS011;19359;51.402;6.778;2022-08-03T10:30:01;3.00;;;0.52;;
7783;SDS011;19359;51.402;6.778;2022-08-03T10:32:30;1.77;;;0.60;;
7783;SDS011;19359;51.402;6.778;2022-08-03T10:35:02;1.08;;;0.40;;
7783;SDS011;19359;51.402;6.778;2022-08-03T10:37:31;0.40;;;0.40;;
7783;SDS011;19359;51.402;6.778;2022-08-03T10:40:07;1.60;;;0.50;;
7783;SDS011;19359;51.402;6.778;2022-08-03T10:42:38;4.13;;;0.88;;
7783;SDS011;19359;51.402;6.778;2022-08-03T10:45:08;0.30;;;0.30;;
7783;SDS011;19359;51.402;6.778;2022-08-03T10:47:40;6.50;;;0.88;;
7783;SDS011;19359;51.402;6.778;2022-08-03T10:50:07;0.57;;;0.57;;
7783;SDS011;19359;51.402;6.778;2022-08-03T10:52:40;1.25;;;1.15;;
7783;SDS011;19359;51.402;6.778;2022-08-03T10:55:30;1.08;;;0.57;;
7783;SDS011;19359;51.402;6.778;2022-08-03T10:58:46;0.85;;;0.57;;
7783;SDS011;19359;51.402;6.778;2022-08-03T11:01:17;4.40;;;1.17;;
7783;SDS011;19359;51.402;6.778;2022-08-03T11:06:43;1.83;;;0.70;;
7783;SDS011;19359;51.402;6.778;2022-08-03T11:09:14;0.93;;;0.75;;
7783;SDS011;19359;51.402;6.778;2022-08-03T11:11:44;0.73;;;0.40;;
7783;SDS011;19359;51.402;6.778;2022-08-03T11:14:13;4.03;;;0.50;;
7783;SDS011;19359;51.402;6.778;2022-08-03T11:16:42;2.80;;;0.60;;
7783;SDS011;19359;51.402;6.778;2022-08-03T11:19:12;1.33;;;0.63;;
7783;SDS011;19359;51.402;6.778;2022-08-03T11:21:53;3.53;;;0.40;;
7783;SDS011;19359;51.402;6.778;2022-08-03T11:27:23;0.65;;;0.40;;
7783;SDS011;19359;51.402;6.778;2022-08-03T11:29:55;2.67;;;0.80;;
7783;SDS011;19359;51.402;6.778;2022-08-03T11:35:20;5.68;;;0.60;;
7783;SDS011;19359;51.402;6.778;2022-08-03T11:38:01;3.63;;;0.52;;
7783;SDS011;19359;51.402;6.778;2022-08-03T11:40:33;8.15;;;1.00;;
7783;SDS011;19359;51.402;6.778;2022-08-03T11:43:03;1.10;;;0.57;;
7783;SDS011;19359;51.402;6.778;2022-08-03T11:45:31;3.83;;;0.82;;
7783;SDS011;19359;51.402;6.778;2022-08-03T11:47:58;1.95;;;0.40;;
7783;SDS011;19359;51.402;6.778;2022-08-03T11:50:37;1.02;;;0.40;;
7783;SDS011;19359;51.402;6.778;2022-08-03T11:53:04;1.40;;;0.60;;
7783;SDS011;19359;51.402;6.778;2022-08-03T11:55:32;7.60;;;0.70;;
7783;SDS011;19359;51.402;6.778;2022-08-03T11:58:05;3.42;;;0.80;;
7783;SDS011;19359;51.402;6.778;2022-08-03T12:00:32;1.33;;;0.40;;
7783;SDS011;19359;51.402;6.778;2022-08-03T12:03:00;4.60;;;0.63;;
7783;SDS011;19359;51.402;6.778;2022-08-03T12:05:37;0.35;;;0.35;;
7783;SDS011;19359;51.402;6.778;2022-08-03T12:08:06;0.90;;;0.50;;
7783;SDS011;19359;51.402;6.778;2022-08-03T12:10:34;1.45;;;0.85;;
7783;SDS011;19359;51.402;6.778;2022-08-03T12:13:02;1.23;;;0.50;;
7783;SDS011;19359;51.402;6.778;2022-08-03T12:15:35;3.42;;;0.80;;
7783;SDS011;19359;51.402;6.778;2022-08-03T12:18:03;4.13;;;0.60;;
7783;SDS011;19359;51.402;6.778;2022-08-03T12:20:38;1.10;;;0.40;;
7783;SDS011;19359;51.402;6.778;2022-08-03T12:23:05;1.65;;;1.00;;
7783;SDS011;19359;51.402;6.778;2022-08-03T12:25:34;3.38;;;0.50;;
7783;SDS011;19359;51.402;6.778;2022-08-03T12:28:06;4.07;;;0.60;;
7783;SDS011;19359;51.402;6.778;2022-08-03T12:30:35;1.95;;;0.80;;
7783;SDS011;19359;51.402;6.778;2022-08-03T12:33:10;4.15;;;0.40;;
7783;SDS011;19359;51.402;6.778;2022-08-03T12:35:41;3.28;;;0.45;;
7783;SDS011;19359;51.402;6.778;2022-08-03T12:38:09;2.72;;;0.73;;
7783;SDS011;19359;51.402;6.778;2022-08-03T12:40:36;3.90;;;0.57;;
7783;SDS011;19359;51.402;6.778;2022-08-03T12:43:10;1.27;;;0.70;;
7783;SDS011;19359;51.402;6.778;2022-08-03T12:45:38;3.40;;;0.47;;
7783;SDS011;19359;51.402;6.778;2022-08-03T12:48:08;2.65;;;0.45;;
7783;SDS011;19359;51.402;6.778;2022-08-03T12:50:36;4.57;;;0.75;;
7783;SDS011;19359;51.402;6.778;2022-08-03T12:53:04;1.58;;;0.50;;
7783;SDS011;19359;51.402;6.778;2022-08-03T12:55:33;1.23;;;0.60;;
7783;SDS011;19359;51.402;6.778;2022-08-03T12:58:01;3.15;;;0.60;;
7783;SDS011;19359;51.402;6.778;2022-08-03T13:00:29;1.92;;;0.60;;
7783;SDS011;19359;51.402;6.778;2022-08-03T13:03:00;2.40;;;0.63;;
7783;SDS011;19359;51.402;6.778;2022-08-03T13:05:27;1.65;;;0.47;;
7783;SDS011;19359;51.402;6.778;2022-08-03T13:07:55;1.80;;;0.55;;
7783;SDS011;19359;51.402;6.778;2022-08-03T13:10:29;3.08;;;0.90;;
7783;SDS011;19359;51.402;6.778;2022-08-03T13:12:57;3.28;;;0.57;;
7783;SDS011;19359;51.402;6.778;2022-08-03T13:15:27;2.13;;;0.73;;
7783;SDS011;19359;51.402;6.778;2022-08-03T13:17:55;7.63;;;0.70;;
7783;SDS011;19359;51.402;6.778;2022-08-03T13:20:22;8.80;;;0.63;;
7783;SDS011;19359;51.402;6.778;2022-08-03T13:22:49;1.65;;;0.50;;
7783;SDS011;19359;51.402;6.778;2022-08-03T13:25:16;3.30;;;0.50;;
7783;SDS011;19359;51.402;6.778;2022-08-03T13:27:44;5.55;;;0.77;;
7783;SDS011;19359;51.402;6.778;2022-08-03T13:30:12;1.55;;;0.57;;
7783;SDS011;19359;51.402;6.778;2022-08-03T13:32:41;0.68;;;0.40;;
7783;SDS011;19359;51.402;6.778;2022-08-03T13:35:08;1.35;;;0.40;;
7783;SDS011;19359;51.402;6.778;2022-08-03T13:37:35;6.78;;;0.50;;
7783;SDS011;19359;51.402;6.778;2022-08-03T13:40:03;2.47;;;0.50;;
7783;SDS011;19359;51.402;6.778;2022-08-03T13:42:34;1.98;;;0.60;;
7783;SDS011;19359;51.402;6.778;2022-08-03T13:45:02;1.90;;;0.20;;
7783;SDS011;19359;51.402;6.778;2022-08-03T13:47:29;3.03;;;0.30;;
7783;SDS011;19359;51.402;6.778;2022-08-03T13:49:58;0.63;;;0.40;;
7783;SDS011;19359;51.402;6.778;2022-08-03T13:52:25;10.25;;;0.88;;
7783;SDS011;19359;51.402;6.778;2022-08-03T13:54:51;0.57;;;0.57;;
7783;SDS011;19359;51.402;6.778;2022-08-03T13:57:18;1.90;;;0.57;;
7783;SDS011;19359;51.402;6.778;2022-08-03T13:59:45;3.97;;;0.50;;
7783;SDS011;19359;51.402;6.778;2022-08-03T14:02:13;2.40;;;0.32;;
7783;SDS011;19359;51.402;6.778;2022-08-03T14:04:40;3.88;;;0.52;;
7783;SDS011;19359;51.402;6.778;2022-08-03T14:07:08;2.92;;;0.40;;
7783;SDS011;19359;51.402;6.778;2022-08-03T14:09:38;5.53;;;1.00;;
7783;SDS011;19359;51.402;6.778;2022-08-03T14:12:05;8.35;;;0.38;;
7783;SDS011;19359;51.402;6.778;2022-08-03T14:14:32;1.00;;;0.20;;
7783;SDS011;19359;51.402;6.778;2022-08-03T14:16:58;1.25;;;0.32;;
7783;SDS011;19359;51.402;6.778;2022-08-03T14:19:25;1.55;;;0.30;;
7783;SDS011;19359;51.402;6.778;2022-08-03T14:21:52;0.85;;;0.40;;
7783;SDS011;19359;51.402;6.778;2022-08-03T14:24:20;2.72;;;0.40;;
7783;SDS011;19359;51.402;6.778;2022-08-03T14:26:47;0.40;;;0.30;;
7783;SDS011;19359;51.402;6.778;2022-08-03T14:29:14;7.55;;;0.50;;
7783;SDS011;19359;51.402;6.778;2022-08-03T14:31:40;1.33;;;0.35;;
7783;SDS011;19359;51.402;6.778;2022-08-03T14:34:07;1.05;;;0.40;;
7783;SDS011;19359;51.402;6.778;2022-08-03T14:36:34;0.60;;;0.30;;
7783;SDS011;19359;51.402;6.778;2022-08-03T14:39:01;1.42;;;0.30;;
7783;SDS011;19359;51.402;6.778;2022-08-03T14:41:29;1.10;;;0.20;;
7783;SDS011;19359;51.402;6.778;2022-08-03T14:43:56;0.73;;;0.40;;
7783;SDS011;19359;51.402;6.778;2022-08-03T14:46:22;6.53;;;0.38;;
7783;SDS011;19359;51.402;6.778;2022-08-03T14:48:49;0.47;;;0.20;;
7783;SDS011;19359;51.402;6.778;2022-08-03T14:51:16;0.85;;;0.22;;
7783;SDS011;19359;51.402;6.778;2022-08-03T14:53:43;0.45;;;0.35;;
7783;SDS011;19359;51.402;6.778;2022-08-03T14:56:10;0.63;;;0.30;;
7783;SDS011;19359;51.402;6.778;2022-08-03T14:58:38;0.50;;;0.30;;
7783;SDS011;19359;51.402;6.778;2022-08-03T15:01:05;0.38;;;0.30;;
7783;SDS011;19359;51.402;6.778;2022-08-03T15:03:32;1.30;;;0.30;;
7783;SDS011;19359;51.402;6.778;2022-08-03T15:05:59;1.65;;;0.30;;
7783;SDS011;19359;51.402;6.778;2022-08-03T15:08:26;1.85;;;0.30;;
7783;SDS011;19359;51.402;6.778;2022-08-03T15:10:52;0.55;;;0.22;;
7783;SDS011;19359;51.402;6.778;2022-08-03T15:13:19;2.33;;;0.20;;
7783;SDS011;19359;51.402;6.778;2022-08-03T15:15:48;1.75;;;0.30;;
7783;SDS011;19359;51.402;6.778;2022-08-03T15:18:15;2.13;;;0.30;;
7783;SDS011;19359;51.402;6.778;2022-08-03T15:20:44;1.42;;;0.28;;
7783;SDS011;19359;51.402;6.778;2022-08-03T15:23:13;2.42;;;0.30;;